Time;durP1;ratioP1;P1;durP2;ratioP2;P2;SDS_P1;SDS_P2;PMS_P1;PMS_P2;Temp;Humidity;BMP_temperature;BMP_pressure;BME280_temperature;BME280_humidity;BME280_pressure;Samples;Min_cycle;Max_cycle;Signal;HPM_P1;HPM_P2
2023/11/11 00:00:37;;;;;;;5.90;2.90;;;;;;;;;;5050408;28;20033;-41
2023/11/11 00:03:07;;;;;;;6.00;2.35;;;;;;;;;;5050221;28;20049;-41
2023/11/11 00:05:35;;;;;;;7.20;2.60;;;;;;;;;;5050538;28;20033;-41
2023/11/11 00:08:02;;;;;;;7.88;2.53;;;;;;;;;;5047573;28;20071;-41
2023/11/11 00:10:29;;;;;;;5.47;2.53;;;;;;;;;;5032520;28;20128;-39
2023/11/11 00:12:57;;;;;;;5.65;2.28;;;;;;;;;;5050356;28;20167;-41
2023/11/11 00:15:25;;;;;;;5.57;2.30;;;;;;;;;;5050716;28;20483;-38
2023/11/11 00:17:52;;;;;;;7.03;2.72;;;;;;;;;;5050554;28;20130;-40
2023/11/11 00:20:20;;;;;;;8.93;2.70;;;;;;;;;;5050400;28;20116;-40
2023/11/11 00:22:49;;;;;;;8.05;2.60;;;;;;;;;;5050221;28;20785;-42
2023/11/11 00:25:16;;;;;;;7.75;2.15;;;;;;;;;;5050325;28;20037;-39
2023/11/11 00:27:44;;;;;;;6.28;1.95;;;;;;;;;;5050289;28;20032;-40
2023/11/11 00:30:13;;;;;;;4.72;2.33;;;;;;;;;;5050278;28;20037;-40
2023/11/11 00:32:40;;;;;;;8.48;2.45;;;;;;;;;;5050079;28;20033;-37
2023/11/11 00:35:08;;;;;;;5.95;2.40;;;;;;;;;;5050044;28;20032;-39
2023/11/11 00:37:35;;;;;;;6.15;2.60;;;;;;;;;;5050305;28;20391;-38
2023/11/11 00:40:03;;;;;;;6.68;3.05;;;;;;;;;;5050376;28;20820;-39
2023/11/11 00:42:30;;;;;;;9.63;3.00;;;;;;;;;;5050100;28;20040;-38
2023/11/11 00:44:56;;;;;;;6.10;2.58;;;;;;;;;;5050263;28;20119;-38
2023/11/11 00:47:23;;;;;;;8.80;3.05;;;;;;;;;;5032369;28;20036;-39
2023/11/11 00:49:51;;;;;;;11.80;4.15;;;;;;;;;;5050135;28;20021;-40
2023/11/11 00:52:18;;;;;;;38.65;15.57;;;;;;;;;;5050160;28;20076;-39
2023/11/11 00:54:45;;;;;;;50.28;20.17;;;;;;;;;;5050198;28;20040;-38
2023/11/11 00:57:12;;;;;;;50.28;20.65;;;;;;;;;;5050150;28;20029;-38
2023/11/11 00:59:39;;;;;;;49.00;18.77;;;;;;;;;;5052760;28;20032;-37
2023/11/11 01:02:06;;;;;;;43.13;15.55;;;;;;;;;;5053529;28;20043;-39
2023/11/11 01:04:33;;;;;;;53.85;21.90;;;;;;;;;;5053506;28;20053;-40
2023/11/11 01:07:00;;;;;;;44.45;20.25;;;;;;;;;;5053570;28;20040;-41
2023/11/11 01:09:27;;;;;;;45.25;19.08;;;;;;;;;;5053560;28;20033;-38
2023/11/11 01:11:54;;;;;;;52.28;19.25;;;;;;;;;;5053323;28;20041;-40
2023/11/11 01:14:22;;;;;;;45.55;19.67;;;;;;;;;;5053431;28;20108;-39
2023/11/11 01:16:50;;;;;;;47.35;19.23;;;;;;;;;;5053193;28;20041;-41
2023/11/11 01:19:17;;;;;;;38.05;18.85;;;;;;;;;;5053196;28;20029;-40
2023/11/11 01:21:44;;;;;;;38.03;17.75;;;;;;;;;;5053014;28;20112;-38
2023/11/11 01:24:11;;;;;;;37.08;17.05;;;;;;;;;;5038332;28;20090;-40
2023/11/11 01:26:38;;;;;;;35.30;16.45;;;;;;;;;;5027516;28;20029;-41
2023/11/11 01:29:05;;;;;;;40.78;16.55;;;;;;;;;;5042246;28;20047;-41
2023/11/11 01:31:32;;;;;;;36.63;16.08;;;;;;;;;;5053281;28;20044;-41
2023/11/11 01:33:59;;;;;;;43.00;16.88;;;;;;;;;;5053502;28;20514;-43
2023/11/11 01:36:26;;;;;;;35.90;16.75;;;;;;;;;;5052828;28;20029;-42
2023/11/11 01:38:54;;;;;;;28.95;14.45;;;;;;;;;;5053329;28;20046;-41
2023/11/11 01:41:21;;;;;;;28.67;15.27;;;;;;;;;;5049633;28;20063;-40
2023/11/11 01:43:48;;;;;;;33.70;15.05;;;;;;;;;;5053195;28;20033;-40
2023/11/11 01:46:15;;;;;;;36.47;14.20;;;;;;;;;;5046569;28;20061;-43
2023/11/11 01:48:44;;;;;;;30.42;12.60;;;;;;;;;;5036182;28;20029;-39
2023/11/11 01:51:11;;;;;;;26.55;12.02;;;;;;;;;;5052457;28;20033;-41
2023/11/11 01:53:38;;;;;;;27.52;13.00;;;;;;;;;;5028921;28;20038;-49
2023/11/11 01:56:08;;;;;;;29.35;13.48;;;;;;;;;;5035757;28;20044;-40
2023/11/11 01:58:38;;;;;;;26.20;12.63;;;;;;;;;;5017644;28;20395;-40
2023/11/11 02:01:07;;;;;;;25.20;11.63;;;;;;;;;;5049272;28;20822;-38
2023/11/11 02:03:35;;;;;;;27.52;12.20;;;;;;;;;;5050137;28;20392;-40
2023/11/11 02:06:03;;;;;;;24.88;11.85;;;;;;;;;;5049876;28;20029;-41
2023/11/11 02:08:31;;;;;;;19.98;10.40;;;;;;;;;;5021006;28;20490;-39
2023/11/11 02:11:06;;;;;;;23.48;10.50;;;;;;;;;;5051886;28;20032;-38
2023/11/11 02:13:36;;;;;;;20.35;10.50;;;;;;;;;;5052681;28;20025;-38
2023/11/11 02:16:04;;;;;;;21.08;10.75;;;;;;;;;;5052614;28;20037;-41
2023/11/11 02:18:31;;;;;;;19.50;10.02;;;;;;;;;;5052430;28;20033;-41
2023/11/11 02:20:59;;;;;;;19.40;9.93;;;;;;;;;;5052454;28;20064;-45
2023/11/11 02:23:35;;;;;;;19.65;10.18;;;;;;;;;;5049795;28;20052;-37
2023/11/11 02:26:03;;;;;;;22.15;10.70;;;;;;;;;;5048259;28;20025;-42
2023/11/11 02:28:31;;;;;;;21.90;10.65;;;;;;;;;;5052474;28;20207;-40
2023/11/11 02:30:58;;;;;;;17.40;10.10;;;;;;;;;;5052250;28;20028;-38
2023/11/11 02:33:25;;;;;;;23.45;10.38;;;;;;;;;;5052471;28;20111;-40
2023/11/11 02:35:52;;;;;;;20.20;10.05;;;;;;;;;;5051963;28;20490;-38
2023/11/11 02:38:20;;;;;;;22.20;9.90;;;;;;;;;;5051893;28;20390;-43
2023/11/11 02:40:47;;;;;;;24.23;10.38;;;;;;;;;;5051929;28;20564;-37
2023/11/11 02:43:14;;;;;;;22.60;10.10;;;;;;;;;;5051730;28;20041;-37
2023/11/11 02:45:41;;;;;;;22.05;10.35;;;;;;;;;;5022389;28;20029;-38
2023/11/11 02:48:08;;;;;;;16.98;9.27;;;;;;;;;;5051359;28;20029;-39
2023/11/11 02:50:35;;;;;;;19.45;9.13;;;;;;;;;;5051450;28;20059;-42
2023/11/11 02:53:02;;;;;;;18.92;8.88;;;;;;;;;;5049847;28;20040;-41
2023/11/11 02:55:29;;;;;;;18.90;9.93;;;;;;;;;;5047371;28;20079;-41
2023/11/11 02:57:57;;;;;;;16.13;8.25;;;;;;;;;;5051147;28;20036;-44
2023/11/11 03:00:24;;;;;;;18.33;9.25;;;;;;;;;;5051260;28;20510;-37
2023/11/11 03:02:51;;;;;;;20.85;9.70;;;;;;;;;;5051157;28;20040;-39
2023/11/11 03:05:18;;;;;;;17.13;8.80;;;;;;;;;;5051489;28;20055;-37
2023/11/11 03:07:45;;;;;;;16.88;9.15;;;;;;;;;;5050774;28;20064;-37
2023/11/11 03:10:15;;;;;;;18.67;9.07;;;;;;;;;;5050721;28;20406;-37
2023/11/11 03:12:42;;;;;;;16.55;8.23;;;;;;;;;;5050204;28;20025;-39
2023/11/11 03:15:09;;;;;;;19.63;9.00;;;;;;;;;;5050624;28;20029;-37
2023/11/11 03:17:37;;;;;;;15.57;8.32;;;;;;;;;;5051194;28;20029;-39
2023/11/11 03:20:04;;;;;;;16.75;8.30;;;;;;;;;;5050920;28;20074;-41
2023/11/11 03:22:31;;;;;;;17.55;8.50;;;;;;;;;;5050406;28;20048;-38
2023/11/11 03:24:59;;;;;;;17.13;8.18;;;;;;;;;;5045948;28;20041;-36
2023/11/11 03:27:26;;;;;;;16.30;7.65;;;;;;;;;;5051149;28;20029;-39
2023/11/11 03:29:53;;;;;;;12.20;6.32;;;;;;;;;;5051392;28;20064;-39
2023/11/11 03:32:20;;;;;;;15.07;6.80;;;;;;;;;;5051190;28;20021;-38
2023/11/11 03:34:47;;;;;;;11.82;6.40;;;;;;;;;;5051279;28;20051;-38
2023/11/11 03:37:14;;;;;;;13.50;6.35;;;;;;;;;;5051245;28;20097;-38
2023/11/11 03:39:41;;;;;;;12.18;5.93;;;;;;;;;;5051248;28;20029;-37
2023/11/11 03:42:09;;;;;;;11.35;5.88;;;;;;;;;;5050599;28;20037;-37
2023/11/11 03:44:36;;;;;;;15.98;6.93;;;;;;;;;;5044475;28;20119;-36
2023/11/11 03:47:04;;;;;;;12.55;6.25;;;;;;;;;;5044781;28;20052;-38
2023/11/11 03:49:31;;;;;;;11.70;6.70;;;;;;;;;;5050991;28;20032;-38
2023/11/11 03:51:58;;;;;;;14.50;6.78;;;;;;;;;;5051047;28;20059;-40
2023/11/11 03:54:26;;;;;;;10.10;5.90;;;;;;;;;;5046635;28;20068;-42
2023/11/11 03:56:53;;;;;;;10.23;6.18;;;;;;;;;;5047485;28;20025;-38
2023/11/11 03:59:20;;;;;;;14.32;6.97;;;;;;;;;;5050980;28;20029;-37
2023/11/11 04:01:47;;;;;;;10.93;6.10;;;;;;;;;;5050707;28;20033;-36
2023/11/11 04:04:14;;;;;;;11.73;6.50;;;;;;;;;;5050595;28;20056;-36
2023/11/11 04:06:41;;;;;;;11.20;5.80;;;;;;;;;;5007585;28;20030;-37
2023/11/11 04:09:07;;;;;;;12.02;6.25;;;;;;;;;;5047016;28;20029;-36
2023/11/11 04:11:34;;;;;;;13.25;6.70;;;;;;;;;;5050757;28;20104;-35
2023/11/11 04:14:02;;;;;;;10.88;6.05;;;;;;;;;;5050563;28;20032;-37
2023/11/11 04:16:29;;;;;;;12.75;6.75;;;;;;;;;;5048064;28;20036;-37
2023/11/11 04:18:57;;;;;;;13.15;6.75;;;;;;;;;;5051036;28;20033;-37
2023/11/11 04:21:25;;;;;;;9.80;5.95;;;;;;;;;;5050942;28;20021;-38
2023/11/11 04:23:52;;;;;;;12.95;6.35;;;;;;;;;;5051007;28;20029;-37
2023/11/11 04:26:18;;;;;;;8.80;5.25;;;;;;;;;;5051124;28;20055;-41
2023/11/11 04:28:45;;;;;;;9.85;6.15;;;;;;;;;;5051078;28;20028;-40
2023/11/11 04:31:17;;;;;;;9.18;4.85;;;;;;;;;;5050790;28;20113;-38
2023/11/11 04:33:44;;;;;;;10.82;5.68;;;;;;;;;;5052148;28;20450;-38
2023/11/11 04:36:14;;;;;;;10.40;5.35;;;;;;;;;;5054829;28;20036;-37
2023/11/11 04:38:42;;;;;;;11.73;5.65;;;;;;;;;;5054863;28;20027;-38
2023/11/11 04:41:11;;;;;;;12.27;5.15;;;;;;;;;;5054605;28;20057;-40
2023/11/11 04:43:38;;;;;;;9.85;5.20;;;;;;;;;;5054530;28;20257;-42
2023/11/11 04:46:06;;;;;;;9.95;5.40;;;;;;;;;;5054704;28;20028;-44
2023/11/11 04:48:33;;;;;;;8.93;5.00;;;;;;;;;;5054394;28;20503;-44
2023/11/11 04:51:00;;;;;;;10.68;4.88;;;;;;;;;;5054412;28;20031;-36
2023/11/11 04:53:28;;;;;;;10.40;4.68;;;;;;;;;;5036581;28;20052;-36
2023/11/11 04:55:55;;;;;;;9.13;4.82;;;;;;;;;;5054450;28;20041;-38
2023/11/11 04:58:23;;;;;;;6.15;4.00;;;;;;;;;;5054474;28;20025;-39
2023/11/11 05:00:50;;;;;;;8.35;4.75;;;;;;;;;;5054112;28;20479;-36
2023/11/11 05:03:17;;;;;;;7.10;4.18;;;;;;;;;;5054208;28;20081;-38
2023/11/11 05:05:44;;;;;;;7.90;4.30;;;;;;;;;;5054283;28;20029;-43
2023/11/11 05:08:11;;;;;;;7.75;4.00;;;;;;;;;;5054233;28;20454;-37
2023/11/11 05:10:39;;;;;;;8.18;4.10;;;;;;;;;;5054069;28;20064;-38
2023/11/11 05:13:08;;;;;;;6.90;4.38;;;;;;;;;;5053688;28;20494;-36
2023/11/11 05:15:45;;;;;;;9.25;4.72;;;;;;;;;;5053668;28;20139;-36
2023/11/11 05:18:12;;;;;;;10.05;4.75;;;;;;;;;;5051075;28;20100;-36
2023/11/11 05:20:40;;;;;;;11.63;4.65;;;;;;;;;;5053311;28;20050;-37
2023/11/11 05:23:10;;;;;;;11.57;4.05;;;;;;;;;;5053308;28;20119;-37
2023/11/11 05:25:37;;;;;;;8.13;3.92;;;;;;;;;;5053856;28;20424;-37
2023/11/11 05:28:05;;;;;;;7.80;3.90;;;;;;;;;;5053954;28;20064;-36
2023/11/11 05:30:32;;;;;;;7.03;3.80;;;;;;;;;;5053689;28;20029;-36
2023/11/11 05:32:59;;;;;;;9.70;4.07;;;;;;;;;;5053708;28;20104;-36
2023/11/11 05:35:26;;;;;;;9.77;4.00;;;;;;;;;;5053702;28;20033;-36
2023/11/11 05:37:56;;;;;;;8.20;4.40;;;;;;;;;;5053758;28;20029;-36
2023/11/11 05:40:23;;;;;;;7.97;3.85;;;;;;;;;;5053722;28;20542;-36
2023/11/11 05:42:51;;;;;;;7.30;3.53;;;;;;;;;;5053530;28;20042;-36
2023/11/11 05:45:18;;;;;;;7.13;3.85;;;;;;;;;;5052407;28;20032;-37
2023/11/11 05:47:45;;;;;;;7.07;3.88;;;;;;;;;;5053636;28;20021;-36
2023/11/11 05:50:13;;;;;;;6.47;3.70;;;;;;;;;;5053488;28;20029;-36
2023/11/11 05:52:40;;;;;;;5.50;3.67;;;;;;;;;;5053431;28;20040;-36
2023/11/11 05:55:11;;;;;;;7.05;3.03;;;;;;;;;;5053443;28;20025;-36
2023/11/11 05:57:38;;;;;;;8.93;3.35;;;;;;;;;;5053362;28;20064;-36
2023/11/11 06:00:10;;;;;;;6.88;2.83;;;;;;;;;;5053305;28;20172;-36
2023/11/11 06:02:37;;;;;;;5.80;3.05;;;;;;;;;;5051627;28;20187;-36
2023/11/11 06:05:05;;;;;;;4.72;2.88;;;;;;;;;;5053005;28;20049;-36
2023/11/11 06:07:32;;;;;;;4.68;3.10;;;;;;;;;;5053254;28;20086;-36
2023/11/11 06:09:59;;;;;;;5.63;2.90;;;;;;;;;;5053067;28;20402;-36
2023/11/11 06:12:26;;;;;;;5.63;3.30;;;;;;;;;;5053096;28;20049;-36
2023/11/11 06:14:53;;;;;;;5.10;2.88;;;;;;;;;;5053115;28;20031;-37
2023/11/11 06:17:20;;;;;;;6.50;3.05;;;;;;;;;;5053063;28;20033;-36
2023/11/11 06:19:47;;;;;;;3.67;2.47;;;;;;;;;;5053141;28;20033;-36
2023/11/11 06:22:14;;;;;;;4.90;2.97;;;;;;;;;;5052548;28;20028;-36
2023/11/11 06:24:41;;;;;;;6.40;2.90;;;;;;;;;;5052876;28;20036;-36
2023/11/11 06:27:09;;;;;;;7.78;3.00;;;;;;;;;;5052828;28;20029;-36
2023/11/11 06:29:36;;;;;;;3.97;2.65;;;;;;;;;;5052645;28;20111;-36
2023/11/11 06:32:03;;;;;;;4.13;2.65;;;;;;;;;;5052766;28;20024;-36
2023/11/11 06:34:31;;;;;;;3.42;2.33;;;;;;;;;;5052780;28;20025;-37
2023/11/11 06:36:58;;;;;;;5.55;2.90;;;;;;;;;;5052759;28;20561;-36
2023/11/11 06:39:25;;;;;;;4.05;2.50;;;;;;;;;;5052461;28;20029;-36
2023/11/11 06:41:53;;;;;;;3.97;2.60;;;;;;;;;;5052453;28;20025;-36
2023/11/11 06:44:20;;;;;;;6.13;2.75;;;;;;;;;;5052506;28;20104;-36
2023/11/11 06:46:47;;;;;;;4.18;2.53;;;;;;;;;;5052560;28;20047;-36
2023/11/11 06:49:15;;;;;;;4.28;2.50;;;;;;;;;;5052194;28;20395;-36
2023/11/11 06:51:41;;;;;;;4.10;2.38;;;;;;;;;;5052109;28;20029;-36
2023/11/11 06:54:09;;;;;;;5.13;2.53;;;;;;;;;;5052378;28;20495;-36
2023/11/11 06:56:36;;;;;;;3.47;2.00;;;;;;;;;;5052047;28;20029;-36
2023/11/11 06:59:03;;;;;;;4.38;2.30;;;;;;;;;;5052218;28;20056;-36
2023/11/11 07:01:30;;;;;;;3.33;2.08;;;;;;;;;;5051980;28;20035;-42
2023/11/11 07:03:57;;;;;;;2.67;2.05;;;;;;;;;;5051843;28;20080;-37
2023/11/11 07:06:25;;;;;;;3.47;2.28;;;;;;;;;;5052131;28;20098;-38
2023/11/11 07:08:52;;;;;;;3.40;1.90;;;;;;;;;;5052028;28;20382;-36
2023/11/11 07:11:20;;;;;;;2.95;1.75;;;;;;;;;;5052046;28;20029;-36
2023/11/11 07:13:47;;;;;;;3.38;1.92;;;;;;;;;;5051994;28;20025;-36
2023/11/11 07:16:18;;;;;;;3.33;1.75;;;;;;;;;;5051913;28;20040;-36
2023/11/11 07:18:45;;;;;;;3.08;1.90;;;;;;;;;;5051988;28;20108;-36
2023/11/11 07:21:22;;;;;;;4.07;2.20;;;;;;;;;;5051809;28;20025;-37
2023/11/11 07:23:49;;;;;;;2.95;1.98;;;;;;;;;;5051815;28;20545;-36
2023/11/11 07:26:17;;;;;;;3.63;1.85;;;;;;;;;;5051811;28;20036;-36
2023/11/11 07:28:48;;;;;;;3.78;2.03;;;;;;;;;;5051711;28;20021;-36
2023/11/11 07:31:28;;;;;;;2.77;1.67;;;;;;;;;;5051785;28;20029;-36
2023/11/11 07:33:55;;;;;;;2.38;1.70;;;;;;;;;;5051746;28;20282;-36
2023/11/11 07:36:24;;;;;;;3.05;2.00;;;;;;;;;;5051501;28;20437;-36
2023/11/11 07:38:51;;;;;;;2.72;1.70;;;;;;;;;;5033509;28;20025;-36
2023/11/11 07:41:23;;;;;;;2.85;1.52;;;;;;;;;;5051512;28;20029;-36
2023/11/11 07:43:51;;;;;;;3.30;1.90;;;;;;;;;;5051412;28;20071;-36
2023/11/11 07:46:19;;;;;;;2.63;1.95;;;;;;;;;;5051456;28;20317;-36
2023/11/11 07:48:46;;;;;;;2.67;1.60;;;;;;;;;;5051530;28;20099;-36
2023/11/11 07:51:13;;;;;;;2.65;1.80;;;;;;;;;;5051364;28;20482;-36
2023/11/11 07:53:40;;;;;;;3.58;1.88;;;;;;;;;;5051549;28;20378;-36
2023/11/11 07:56:06;;;;;;;3.67;1.98;;;;;;;;;;5051450;28;20028;-36
2023/11/11 07:58:34;;;;;;;3.97;2.13;;;;;;;;;;5051424;28;20067;-36
2023/11/11 08:01:03;;;;;;;2.22;1.58;;;;;;;;;;5051197;28;20067;-36
2023/11/11 08:03:32;;;;;;;1.67;1.50;;;;;;;;;;5051111;28;20108;-36
2023/11/11 08:05:59;;;;;;;3.22;1.90;;;;;;;;;;5051241;28;20487;-36
2023/11/11 08:08:29;;;;;;;4.72;1.95;;;;;;;;;;5052159;28;20502;-36
2023/11/11 08:10:56;;;;;;;3.40;1.60;;;;;;;;;;5055539;28;20037;-36
2023/11/11 08:13:23;;;;;;;3.33;1.88;;;;;;;;;;5055424;28;20115;-36
2023/11/11 08:15:51;;;;;;;2.60;1.60;;;;;;;;;;5055148;28;20629;-37
2023/11/11 08:18:18;;;;;;;2.13;1.48;;;;;;;;;;5055297;28;20025;-36
2023/11/11 08:20:44;;;;;;;2.47;1.52;;;;;;;;;;5055294;28;20075;-36
2023/11/11 08:23:11;;;;;;;4.05;1.63;;;;;;;;;;5054932;28;20036;-36
2023/11/11 08:25:38;;;;;;;2.72;1.50;;;;;;;;;;5055171;28;20056;-36
2023/11/11 08:28:07;;;;;;;3.10;1.63;;;;;;;;;;5054899;28;20033;-36
2023/11/11 08:30:34;;;;;;;2.88;1.63;;;;;;;;;;5054856;28;20037;-36
2023/11/11 08:33:04;;;;;;;3.30;1.60;;;;;;;;;;5054898;28;20043;-36
2023/11/11 08:35:32;;;;;;;3.05;1.65;;;;;;;;;;5055037;28;20097;-36
2023/11/11 08:38:00;;;;;;;2.22;1.40;;;;;;;;;;5054848;28;20116;-36
2023/11/11 08:40:27;;;;;;;2.55;1.50;;;;;;;;;;5054577;28;20037;-36
2023/11/11 08:42:54;;;;;;;2.58;1.50;;;;;;;;;;5054671;28;20124;-36
2023/11/11 08:45:21;;;;;;;1.85;1.20;;;;;;;;;;5054877;28;20518;-36
2023/11/11 08:47:48;;;;;;;2.42;1.33;;;;;;;;;;5054732;28;20032;-36
2023/11/11 08:50:15;;;;;;;1.90;1.40;;;;;;;;;;5054576;28;20025;-36
2023/11/11 08:52:42;;;;;;;2.33;1.25;;;;;;;;;;5054725;28;20036;-36
2023/11/11 08:55:10;;;;;;;1.73;1.15;;;;;;;;;;5054575;28;20033;-36
2023/11/11 08:57:38;;;;;;;2.40;1.58;;;;;;;;;;5054600;28;20033;-36
2023/11/11 09:00:08;;;;;;;2.28;1.40;;;;;;;;;;5054513;28;20017;-36
2023/11/11 09:02:35;;;;;;;2.03;1.42;;;;;;;;;;5054199;28;20060;-36
2023/11/11 09:05:04;;;;;;;2.05;1.40;;;;;;;;;;5054360;28;20056;-36
2023/11/11 09:07:32;;;;;;;1.77;1.38;;;;;;;;;;5054235;28;20434;-36
2023/11/11 09:09:59;;;;;;;2.38;1.45;;;;;;;;;;5054364;28;20458;-36
2023/11/11 09:12:25;;;;;;;2.30;1.50;;;;;;;;;;5054297;28;20058;-36
2023/11/11 09:14:52;;;;;;;3.72;1.45;;;;;;;;;;5054215;28;20087;-36
2023/11/11 09:17:21;;;;;;;2.08;1.20;;;;;;;;;;5054234;28;20116;-36
2023/11/11 09:19:48;;;;;;;4.40;1.40;;;;;;;;;;5053853;28;20280;-36
2023/11/11 09:22:15;;;;;;;2.15;1.15;;;;;;;;;;5053785;28;20692;-36
2023/11/11 09:24:42;;;;;;;1.92;1.20;;;;;;;;;;5054114;28;20439;-36
2023/11/11 09:27:10;;;;;;;2.13;1.42;;;;;;;;;;5054077;28;20499;-36
2023/11/11 09:29:37;;;;;;;1.60;1.20;;;;;;;;;;5054023;28;20098;-36
2023/11/11 09:32:04;;;;;;;2.42;1.33;;;;;;;;;;5053903;28;20032;-37
2023/11/11 09:34:31;;;;;;;1.48;1.02;;;;;;;;;;5053881;28;20033;-37
2023/11/11 09:36:58;;;;;;;1.67;1.00;;;;;;;;;;5053915;28;20086;-36
2023/11/11 09:39:25;;;;;;;1.77;0.98;;;;;;;;;;5053903;28;20025;-36
2023/11/11 09:41:52;;;;;;;2.90;1.15;;;;;;;;;;5053709;28;20079;-36
2023/11/11 09:44:19;;;;;;;3.42;1.30;;;;;;;;;;5053497;28;20041;-36
2023/11/11 09:46:53;;;;;;;1.48;1.10;;;;;;;;;;5053751;28;20494;-36
2023/11/11 09:49:20;;;;;;;2.17;1.35;;;;;;;;;;5053317;28;20037;-36
2023/11/11 09:51:50;;;;;;;2.13;1.20;;;;;;;;;;5053494;28;20483;-36
2023/11/11 09:54:17;;;;;;;1.95;1.20;;;;;;;;;;5053503;28;20498;-36
2023/11/11 09:56:44;;;;;;;1.75;1.00;;;;;;;;;;5053362;28;20505;-36
2023/11/11 09:59:12;;;;;;;2.15;1.15;;;;;;;;;;5053026;28;20479;-36
2023/11/11 10:01:44;;;;;;;1.70;1.00;;;;;;;;;;5052997;28;20025;-36
2023/11/11 10:04:11;;;;;;;2.03;1.20;;;;;;;;;;5052608;28;20045;-36
2023/11/11 10:06:38;;;;;;;2.95;0.90;;;;;;;;;;5053058;28;20047;-36
2023/11/11 10:09:08;;;;;;;2.63;0.90;;;;;;;;;;5053141;28;20029;-35
2023/11/11 10:11:36;;;;;;;4.28;1.00;;;;;;;;;;5052418;28;20044;-36
2023/11/11 10:14:03;;;;;;;1.45;1.00;;;;;;;;;;5052938;28;20114;-35
2023/11/11 10:16:32;;;;;;;2.38;1.10;;;;;;;;;;5053010;28;20498;-35
2023/11/11 10:18:59;;;;;;;3.95;0.82;;;;;;;;;;5053006;28;20449;-36
2023/11/11 10:21:26;;;;;;;5.55;0.90;;;;;;;;;;5047977;28;20082;-35
2023/11/11 10:23:55;;;;;;;1.63;1.00;;;;;;;;;;5052630;28;20040;-36
2023/11/11 10:26:22;;;;;;;2.25;1.00;;;;;;;;;;5052732;28;20048;-36
2023/11/11 10:28:50;;;;;;;5.13;1.05;;;;;;;;;;5052850;28;20037;-37
2023/11/11 10:31:24;;;;;;;0.85;0.80;;;;;;;;;;5051778;28;20025;-37
2023/11/11 10:33:52;;;;;;;1.27;0.80;;;;;;;;;;5052526;28;20092;-37
2023/11/11 10:36:22;;;;;;;2.25;1.02;;;;;;;;;;5052629;28;20029;-39
2023/11/11 10:38:49;;;;;;;3.20;0.93;;;;;;;;;;5051530;28;20056;-36
2023/11/11 10:41:16;;;;;;;3.90;0.90;;;;;;;;;;5052416;28;20025;-36
2023/11/11 10:43:44;;;;;;;2.25;1.00;;;;;;;;;;5052453;28;20506;-36
2023/11/11 10:46:11;;;;;;;3.20;0.85;;;;;;;;;;5052308;28;20041;-36
2023/11/11 10:48:39;;;;;;;3.40;1.00;;;;;;;;;;5052368;28;20060;-36
2023/11/11 10:51:06;;;;;;;2.85;0.75;;;;;;;;;;5052284;28;20078;-36
2023/11/11 10:53:33;;;;;;;1.55;0.80;;;;;;;;;;5051605;28;20032;-36
2023/11/11 10:56:01;;;;;;;2.78;1.00;;;;;;;;;;5046182;28;20035;-37
2023/11/11 10:58:31;;;;;;;2.55;0.95;;;;;;;;;;5049330;28;20124;-37
2023/11/11 11:00:59;;;;;;;1.23;0.80;;;;;;;;;;5047918;28;20394;-36
2023/11/11 11:03:29;;;;;;;3.97;0.77;;;;;;;;;;5041843;28;20480;-36
2023/11/11 11:05:58;;;;;;;2.80;0.73;;;;;;;;;;5043431;28;20029;-36
2023/11/11 11:08:44;;;;;;;1.45;0.90;;;;;;;;;;5052108;28;20029;-37
2023/11/11 11:11:27;;;;;;;2.88;0.90;;;;;;;;;;5043761;28;20090;-37
2023/11/11 11:13:57;;;;;;;1.48;0.60;;;;;;;;;;5052024;28;20032;-36
2023/11/11 11:16:31;;;;;;;4.93;1.00;;;;;;;;;;5051956;28;20112;-36
2023/11/11 11:18:59;;;;;;;2.30;0.70;;;;;;;;;;5031992;28;20026;-37
2023/11/11 11:21:29;;;;;;;2.67;0.73;;;;;;;;;;5039209;28;20036;-36
2023/11/11 11:23:56;;;;;;;1.95;0.82;;;;;;;;;;5051789;28;20040;-36
2023/11/11 11:26:28;;;;;;;2.80;0.80;;;;;;;;;;5049362;28;20071;-36
2023/11/11 11:29:10;;;;;;;4.23;0.90;;;;;;;;;;5051812;28;20040;-36
2023/11/11 11:31:36;;;;;;;;;;;;;;;;;;5051823;28;20045;-36
2023/11/11 11:34:04;;;;;;;1.60;0.88;;;;;;;;;;5045627;28;19955;-36
2023/11/11 11:36:52;;;;;;;1.45;0.70;;;;;;;;;;5041442;28;20021;-37
2023/11/11 11:39:20;;;;;;;1.23;0.80;;;;;;;;;;5047095;28;20292;-37
2023/11/11 11:41:47;;;;;;;4.28;0.70;;;;;;;;;;5051353;28;20021;-37
2023/11/11 11:44:15;;;;;;;3.90;0.70;;;;;;;;;;5049501;28;20068;-37
2023/11/11 11:46:42;;;;;;;1.30;0.60;;;;;;;;;;5050903;28;20087;-38
2023/11/11 11:49:09;;;;;;;7.72;0.90;;;;;;;;;;5051392;28;20078;-38
2023/11/11 11:51:50;;;;;;;1.70;0.70;;;;;;;;;;5051179;28;20048;-37
2023/11/11 11:54:17;;;;;;;2.22;0.77;;;;;;;;;;5049587;28;20021;-38
2023/11/11 11:56:44;;;;;;;4.57;1.05;;;;;;;;;;5051290;28;20104;-38
2023/11/11 11:59:16;;;;;;;1.75;0.70;;;;;;;;;;5046537;28;20029;-38
2023/11/11 12:01:43;;;;;;;2.80;0.70;;;;;;;;;;5031258;28;20033;-38
2023/11/11 12:04:10;;;;;;;2.70;0.80;;;;;;;;;;5031229;28;20051;-38
2023/11/11 12:06:38;;;;;;;2.80;0.80;;;;;;;;;;5031314;28;20034;-38
2023/11/11 12:09:09;;;;;;;3.13;0.88;;;;;;;;;;5031079;28;20502;-37
2023/11/11 12:11:37;;;;;;;3.97;0.80;;;;;;;;;;5031184;28;20480;-37
2023/11/11 12:14:04;;;;;;;2.58;0.80;;;;;;;;;;5036407;28;20035;-38
2023/11/11 12:16:42;;;;;;;1.98;0.90;;;;;;;;;;5042818;28;20056;-38
2023/11/11 12:19:10;;;;;;;1.70;0.70;;;;;;;;;;5048931;28;20064;-38
2023/11/11 12:21:37;;;;;;;2.42;0.80;;;;;;;;;;5041021;28;20029;-38
2023/11/11 12:24:05;;;;;;;4.22;0.90;;;;;;;;;;5031153;28;20055;-38
2023/11/11 12:26:32;;;;;;;1.10;0.70;;;;;;;;;;5047631;28;20029;-37
2023/11/11 12:28:59;;;;;;;2.28;0.80;;;;;;;;;;5051104;28;20025;-37
2023/11/11 12:31:26;;;;;;;1.58;0.70;;;;;;;;;;5041008;28;20025;-38
2023/11/11 12:33:53;;;;;;;2.88;0.98;;;;;;;;;;5031092;28;20112;-38
2023/11/11 12:36:20;;;;;;;1.40;0.77;;;;;;;;;;5030985;28;20033;-37
2023/11/11 12:38:48;;;;;;;3.45;0.75;;;;;;;;;;5031153;28;20483;-37
2023/11/11 12:41:15;;;;;;;2.13;0.60;;;;;;;;;;5031050;28;20032;-37
2023/11/11 12:43:42;;;;;;;1.95;0.90;;;;;;;;;;5040946;28;20042;-37
2023/11/11 12:46:15;;;;;;;1.08;0.68;;;;;;;;;;5037173;28;20025;-37
2023/11/11 12:48:42;;;;;;;2.80;0.93;;;;;;;;;;5038593;28;20041;-37
2023/11/11 12:51:28;;;;;;;2.22;0.70;;;;;;;;;;5037510;28;20057;-37
2023/11/11 12:53:56;;;;;;;2.25;0.68;;;;;;;;;;5043774;28;20398;-36
2023/11/11 12:56:24;;;;;;;2.08;0.70;;;;;;;;;;5054110;28;20119;-37
2023/11/11 12:59:05;;;;;;;2.05;0.77;;;;;;;;;;5045200;28;20021;-37
2023/11/11 13:01:33;;;;;;;2.25;0.70;;;;;;;;;;5053196;28;20025;-37
2023/11/11 13:04:08;;;;;;;1.75;0.70;;;;;;;;;;5053847;28;20536;-37
2023/11/11 13:06:35;;;;;;;3.10;0.80;;;;;;;;;;5034172;28;20033;-37
2023/11/11 13:09:04;;;;;;;10.63;1.40;;;;;;;;;;5034246;28;20033;-37
2023/11/11 13:11:32;;;;;;;7.85;1.05;;;;;;;;;;5034094;28;20033;-38
2023/11/11 13:14:00;;;;;;;3.83;0.90;;;;;;;;;;5036795;28;20047;-37
2023/11/11 13:16:27;;;;;;;6.90;1.00;;;;;;;;;;5054047;28;20044;-37
2023/11/11 13:18:58;;;;;;;4.97;1.00;;;;;;;;;;5052290;28;20072;-37
2023/11/11 13:21:29;;;;;;;4.90;1.10;;;;;;;;;;5038943;28;20108;-37
2023/11/11 13:23:57;;;;;;;5.43;1.08;;;;;;;;;;5035491;28;20076;-37
2023/11/11 13:26:25;;;;;;;5.68;1.27;;;;;;;;;;5053064;28;20036;-38
2023/11/11 13:28:53;;;;;;;7.40;1.10;;;;;;;;;;5049393;28;20028;-38
2023/11/11 13:31:24;;;;;;;8.23;1.10;;;;;;;;;;5052679;28;20032;-39
2023/11/11 13:33:51;;;;;;;5.63;1.00;;;;;;;;;;5050993;28;20036;-38
2023/11/11 13:36:29;;;;;;;3.22;0.80;;;;;;;;;;5053126;28;20111;-38
2023/11/11 13:38:59;;;;;;;7.30;1.15;;;;;;;;;;5049582;28;20052;-38
2023/11/11 13:41:32;;;;;;;7.07;1.27;;;;;;;;;;5052349;28;20513;-38
2023/11/11 13:43:59;;;;;;;6.85;0.90;;;;;;;;;;5052757;28;20037;-39
2023/11/11 13:46:26;;;;;;;5.80;0.90;;;;;;;;;;5052219;28;20021;-38
2023/11/11 13:48:54;;;;;;;4.13;0.75;;;;;;;;;;5053374;28;20025;-38
2023/11/11 13:51:22;;;;;;;6.22;0.90;;;;;;;;;;5050183;28;20036;-38
2023/11/11 13:53:54;;;;;;;2.97;1.00;;;;;;;;;;5053254;28;20141;-37
2023/11/11 13:56:25;;;;;;;5.15;1.00;;;;;;;;;;5033552;28;20203;-38
2023/11/11 13:58:54;;;;;;;2.85;1.05;;;;;;;;;;5033114;28;20022;-38
2023/11/11 14:01:23;;;;;;;4.97;1.15;;;;;;;;;;5033389;28;20065;-38
2023/11/11 14:03:50;;;;;;;3.00;0.90;;;;;;;;;;5033104;28;20049;-37
2023/11/11 14:06:18;;;;;;;3.65;1.10;;;;;;;;;;5032326;28;20737;-37
2023/11/11 14:08:46;;;;;;;5.38;1.13;;;;;;;;;;5033245;28;20037;-38
2023/11/11 14:11:12;;;;;;;4.85;0.80;;;;;;;;;;5033158;28;20120;-38
2023/11/11 14:13:39;;;;;;;3.03;1.17;;;;;;;;;;5033242;28;20084;-38
2023/11/11 14:16:07;;;;;;;5.30;1.27;;;;;;;;;;5035402;28;20562;-40
2023/11/11 14:18:34;;;;;;;4.95;1.10;;;;;;;;;;5035600;28;20086;-39
2023/11/11 14:21:02;;;;;;;4.82;1.00;;;;;;;;;;5032894;28;20026;-38
2023/11/11 14:23:30;;;;;;;3.10;1.15;;;;;;;;;;5032725;28;20505;-38
2023/11/11 14:25:57;;;;;;;5.88;1.10;;;;;;;;;;5033031;28;20104;-38
2023/11/11 14:28:24;;;;;;;4.60;1.00;;;;;;;;;;5032856;28;20035;-38
2023/11/11 14:30:51;;;;;;;3.30;0.98;;;;;;;;;;5037659;28;20048;-41
2023/11/11 14:33:19;;;;;;;4.80;1.08;;;;;;;;;;5052620;28;20029;-37
2023/11/11 14:35:46;;;;;;;2.45;0.93;;;;;;;;;;5052438;28;20037;-37
2023/11/11 14:38:15;;;;;;;3.45;1.40;;;;;;;;;;5052625;28;20128;-37
2023/11/11 14:40:44;;;;;;;3.78;1.13;;;;;;;;;;5047952;28;20029;-37
2023/11/11 14:43:11;;;;;;;9.55;1.40;;;;;;;;;;5051267;28;20123;-38